createdAt,value
2023-03-03T00:00:27.721Z,45.20
2023-03-03T00:02:54.435Z,45.10
2023-03-03T00:05:21.096Z,45.20
2023-03-03T00:07:49.095Z,45.20
2023-03-03T00:10:15.806Z,45.10
2023-03-03T00:12:48.900Z,45.20
2023-03-03T00:15:23.008Z,45.10
2023-03-03T00:17:49.779Z,45.20
2023-03-03T00:20:25.551Z,45.10
2023-03-03T00:22:52.221Z,45.10
2023-03-03T00:25:18.946Z,45.20
2023-03-03T00:27:45.628Z,45.10
2023-03-03T00:30:25.265Z,45.20
2023-03-03T00:32:53.216Z,45.20
2023-03-03T00:35:23.568Z,45.20
2023-03-03T00:38:00.159Z,45.20
2023-03-03T00:40:27.068Z,45.10
2023-03-03T00:42:54.737Z,45.20
2023-03-03T00:45:24.878Z,45.10
2023-03-03T00:47:51.571Z,45.10
2023-03-03T00:50:23.830Z,45.10
2023-03-03T00:52:55.818Z,45.10
2023-03-03T00:55:22.743Z,45.10
2023-03-03T00:57:49.586Z,45.00
2023-03-03T01:00:18.019Z,45.10
2023-03-03T01:02:46.526Z,45.00
2023-03-03T01:05:13.685Z,45.10
2023-03-03T01:07:40.393Z,45.10
2023-03-03T01:10:07.606Z,44.90
2023-03-03T01:12:34.347Z,45.10
2023-03-03T01:15:01.204Z,44.90
2023-03-03T01:17:27.904Z,45.10
2023-03-03T01:19:54.625Z,45.10
2023-03-03T01:22:21.360Z,44.90
2023-03-03T01:24:48.005Z,45.10
2023-03-03T01:27:14.723Z,45.00
2023-03-03T01:29:41.425Z,45.00
2023-03-03T01:32:08.170Z,45.00
2023-03-03T01:34:34.979Z,45.50
2023-03-03T01:37:01.662Z,45.00
2023-03-03T01:39:28.407Z,44.90
2023-03-03T01:41:55.039Z,45.00
2023-03-03T01:44:21.716Z,45.00
2023-03-03T01:46:55.684Z,45.00
2023-03-03T01:49:23.243Z,45.10
2023-03-03T01:51:54.377Z,44.90
2023-03-03T01:54:31.315Z,45.00
2023-03-03T01:57:00.106Z,44.90
2023-03-03T01:59:31.913Z,45.00
2023-03-03T02:01:58.654Z,44.90
2023-03-03T02:04:26.558Z,44.90
2023-03-03T02:06:58.268Z,45.00
2023-03-03T02:09:31.509Z,44.80
2023-03-03T02:11:59.717Z,44.90
2023-03-03T02:14:26.452Z,44.90
2023-03-03T02:16:56.173Z,44.80
2023-03-03T02:19:22.845Z,44.90
2023-03-03T02:21:49.512Z,44.90
2023-03-03T02:24:36.499Z,45.00
2023-03-03T02:27:03.303Z,44.90
2023-03-03T02:29:30.018Z,44.90
2023-03-03T02:31:56.818Z,44.90
2023-03-03T02:34:23.573Z,44.80
2023-03-03T02:36:50.226Z,45.60
2023-03-03T02:39:21.057Z,44.90
2023-03-03T02:41:51.389Z,44.90
2023-03-03T02:44:20.168Z,44.90
2023-03-03T02:46:47.388Z,44.80
2023-03-03T02:49:15.374Z,45.00
2023-03-03T02:51:42.165Z,44.90
2023-03-03T02:54:09.027Z,44.90
2023-03-03T02:56:36.117Z,44.80
2023-03-03T02:59:03.303Z,44.80
2023-03-03T03:01:32.138Z,44.80
2023-03-03T03:03:59.034Z,44.80
2023-03-03T03:06:25.777Z,44.90
2023-03-03T03:08:52.961Z,44.80
2023-03-03T03:11:19.655Z,44.80
2023-03-03T03:13:46.342Z,44.90
2023-03-03T03:16:14.200Z,44.80
2023-03-03T03:18:41.020Z,44.90
2023-03-03T03:21:08.703Z,44.90
2023-03-03T03:23:35.988Z,44.90
2023-03-03T03:26:02.764Z,44.80
2023-03-03T03:28:29.513Z,44.80
2023-03-03T03:30:56.868Z,44.80
2023-03-03T03:33:23.855Z,44.80
2023-03-03T03:35:50.791Z,44.80
2023-03-03T03:38:17.539Z,44.80
2023-03-03T03:40:44.266Z,44.80
2023-03-03T03:43:11.038Z,44.80
2023-03-03T03:45:37.758Z,44.80
2023-03-03T03:48:05.166Z,44.80
2023-03-03T03:50:32.246Z,44.80
2023-03-03T03:52:58.945Z,44.80
2023-03-03T03:55:25.706Z,44.90
2023-03-03T03:57:52.409Z,44.60
2023-03-03T04:00:19.173Z,44.80
2023-03-03T04:02:46.047Z,44.80
2023-03-03T04:05:12.959Z,44.80
2023-03-03T04:07:39.670Z,44.90
2023-03-03T04:10:06.748Z,44.70
2023-03-03T04:12:39.055Z,44.80
2023-03-03T04:15:07.249Z,44.80
2023-03-03T04:17:33.974Z,44.80
2023-03-03T04:20:00.931Z,44.80
2023-03-03T04:22:27.979Z,44.70
2023-03-03T04:24:55.657Z,44.80
2023-03-03T04:27:22.363Z,44.80
2023-03-03T04:29:49.175Z,44.70
2023-03-03T04:32:16.477Z,44.80
2023-03-03T04:34:43.189Z,44.60
2023-03-03T04:37:09.970Z,44.80
2023-03-03T04:39:36.649Z,44.60
2023-03-03T04:42:03.410Z,44.80
2023-03-03T04:44:30.131Z,44.80
2023-03-03T04:46:56.840Z,44.80
2023-03-03T04:49:23.545Z,44.80
2023-03-03T04:51:50.259Z,44.80
2023-03-03T04:54:16.993Z,44.80
2023-03-03T04:56:43.789Z,44.80
2023-03-03T04:59:11.062Z,44.70
2023-03-03T05:01:39.463Z,44.80
2023-03-03T05:04:06.222Z,44.80
2023-03-03T05:06:32.979Z,44.80
2023-03-03T05:08:59.688Z,44.70
2023-03-03T05:11:26.457Z,44.50
2023-03-03T05:13:53.668Z,44.80
2023-03-03T05:16:20.444Z,44.50
2023-03-03T05:18:47.980Z,44.70
2023-03-03T05:21:14.736Z,44.50
2023-03-03T05:23:41.421Z,44.60
2023-03-03T05:26:08.142Z,44.50
2023-03-03T05:28:35.060Z,44.50
2023-03-03T05:31:01.741Z,44.80
2023-03-03T05:33:28.437Z,44.50
2023-03-03T05:35:55.903Z,44.60
2023-03-03T05:38:22.941Z,44.70
2023-03-03T05:40:49.630Z,44.50
2023-03-03T05:43:16.328Z,45.40
2023-03-03T05:45:43.132Z,44.60
2023-03-03T05:48:10.405Z,44.70
2023-03-03T05:50:37.425Z,44.70
2023-03-03T05:53:04.365Z,44.70
2023-03-03T05:55:31.069Z,44.70
2023-03-03T05:57:57.788Z,44.70
2023-03-03T06:00:24.551Z,44.80
2023-03-03T06:02:51.273Z,44.70
2023-03-03T06:05:18.080Z,44.70
2023-03-03T06:07:45.210Z,44.80
2023-03-03T06:10:12.090Z,44.70
2023-03-03T06:12:44.431Z,44.80
2023-03-03T06:15:11.532Z,44.70
2023-03-03T06:17:38.337Z,44.70
2023-03-03T06:20:05.386Z,44.70
2023-03-03T06:22:32.213Z,44.70
2023-03-03T06:24:58.949Z,44.70
2023-03-03T06:27:25.673Z,44.70
2023-03-03T06:29:52.395Z,44.80
2023-03-03T06:32:19.164Z,44.90
2023-03-03T06:34:46.329Z,44.80
2023-03-03T06:37:13.283Z,44.80
2023-03-03T06:39:40.076Z,44.90
2023-03-03T06:42:07.234Z,44.80
2023-03-03T06:44:33.982Z,44.10
2023-03-03T06:47:00.667Z,44.80
2023-03-03T06:49:27.547Z,45.30
2023-03-03T06:51:54.268Z,44.50
2023-03-03T06:54:23.113Z,44.90
2023-03-03T06:56:57.819Z,45.20
2023-03-03T06:59:24.539Z,45.20
2023-03-03T07:01:51.270Z,45.10
2023-03-03T07:04:28.942Z,45.10
2023-03-03T07:06:56.114Z,45.20
2023-03-03T07:09:26.848Z,45.10
2023-03-03T07:11:54.263Z,45.30
2023-03-03T07:14:21.402Z,45.10
2023-03-03T07:16:51.813Z,45.20
2023-03-03T07:19:19.872Z,45.20
2023-03-03T07:21:46.687Z,45.20
2023-03-03T07:24:26.376Z,45.20
2023-03-03T07:26:53.307Z,45.20
2023-03-03T07:29:27.239Z,45.20
2023-03-03T07:31:57.547Z,45.10
2023-03-03T07:34:31.076Z,45.10
2023-03-03T07:37:00.168Z,45.10
2023-03-03T07:39:40.059Z,45.10
2023-03-03T07:42:44.962Z,45.10
2023-03-03T07:45:23.682Z,45.10
2023-03-03T07:47:52.087Z,45.10
2023-03-03T07:50:20.354Z,45.10
2023-03-03T07:52:51.924Z,45.20
2023-03-03T07:55:37.551Z,45.10
2023-03-03T07:58:15.041Z,45.10
2023-03-03T08:00:51.529Z,45.20
2023-03-03T08:03:19.608Z,45.20
2023-03-03T08:05:50.069Z,45.20
2023-03-03T08:08:17.972Z,45.20
2023-03-03T08:10:44.769Z,45.20
2023-03-03T08:13:21.810Z,45.10
2023-03-03T08:16:17.000Z,45.20
2023-03-03T08:18:47.981Z,45.20
2023-03-03T08:21:27.408Z,45.10
2023-03-03T08:23:54.425Z,45.10
2023-03-03T08:26:21.624Z,45.10
2023-03-03T08:28:48.593Z,45.20
2023-03-03T08:31:27.735Z,45.10
2023-03-03T08:34:01.736Z,45.10
2023-03-03T08:36:28.763Z,45.10
2023-03-03T08:38:55.889Z,45.10
2023-03-03T08:41:23.117Z,45.20
2023-03-03T08:43:49.972Z,45.10
2023-03-03T08:46:16.761Z,45.10
2023-03-03T08:48:43.608Z,45.10
2023-03-03T08:51:10.322Z,45.10
2023-03-03T08:53:38.308Z,45.10
2023-03-03T08:56:05.534Z,45.10
2023-03-03T08:58:35.602Z,45.20
2023-03-03T09:01:03.014Z,45.10
2023-03-03T09:03:30.135Z,45.20
2023-03-03T09:05:57.291Z,45.20
2023-03-03T09:08:24.054Z,45.20
2023-03-03T09:10:50.850Z,45.20
2023-03-03T09:13:19.094Z,45.20
2023-03-03T09:15:46.049Z,45.20
2023-03-03T09:18:22.795Z,45.20
2023-03-03T09:20:50.713Z,45.20
2023-03-03T09:23:31.275Z,45.40
2023-03-03T09:25:59.223Z,45.30
2023-03-03T09:28:27.050Z,45.30
2023-03-03T09:30:54.427Z,45.20
2023-03-03T09:33:23.565Z,45.30
2023-03-03T09:35:51.096Z,45.30
2023-03-03T09:38:27.092Z,45.30
2023-03-03T09:41:06.148Z,45.30
2023-03-03T09:43:32.953Z,45.90
2023-03-03T09:46:02.692Z,45.30
2023-03-03T09:48:40.963Z,45.30
2023-03-03T09:51:12.236Z,45.20
2023-03-03T09:53:42.548Z,45.20
2023-03-03T09:56:09.359Z,45.20
2023-03-03T09:58:45.663Z,45.30
2023-03-03T10:01:24.877Z,45.30
2023-03-03T10:04:10.420Z,45.20
2023-03-03T10:06:49.749Z,45.20
2023-03-03T10:09:35.113Z,45.30
2023-03-03T10:12:05.730Z,45.20
2023-03-03T10:14:39.395Z,45.30
2023-03-03T10:17:15.239Z,45.40
2023-03-03T10:20:04.075Z,45.30
2023-03-03T10:22:30.797Z,45.40
2023-03-03T10:24:57.496Z,45.20
2023-03-03T10:27:24.205Z,45.30
2023-03-03T10:29:54.510Z,45.30
2023-03-03T10:32:21.338Z,45.30
2023-03-03T10:34:51.139Z,45.40
2023-03-03T10:37:21.379Z,45.40
2023-03-03T10:39:48.114Z,45.30
2023-03-03T10:42:21.074Z,45.30
2023-03-03T10:45:00.256Z,45.30
2023-03-03T10:47:42.352Z,45.40
2023-03-03T10:50:23.201Z,45.30
2023-03-03T10:52:59.265Z,45.40
2023-03-03T10:55:50.242Z,45.30
2023-03-03T10:58:28.916Z,45.30
2023-03-03T11:01:07.998Z,45.30
2023-03-03T11:03:53.715Z,45.30
2023-03-03T11:06:20.540Z,45.40
2023-03-03T11:08:58.645Z,45.30
2023-03-03T11:11:44.750Z,45.30
2023-03-03T11:14:17.636Z,45.40
2023-03-03T11:16:53.647Z,45.20
2023-03-03T11:19:26.448Z,45.20
2023-03-03T11:22:08.436Z,45.20
2023-03-03T11:24:38.263Z,45.20
2023-03-03T11:27:23.896Z,45.10
2023-03-03T11:30:06.314Z,45.20
2023-03-03T11:32:51.861Z,45.10
2023-03-03T11:35:38.706Z,45.20
2023-03-03T11:38:17.853Z,45.20
2023-03-03T11:41:05.024Z,45.20
2023-03-03T11:43:58.089Z,45.20
2023-03-03T11:46:25.212Z,45.20
2023-03-03T11:49:09.538Z,45.80
2023-03-03T11:51:39.326Z,45.30
2023-03-03T11:54:09.324Z,45.20
2023-03-03T11:56:43.214Z,45.20
2023-03-03T11:59:30.251Z,45.30
2023-03-03T12:02:15.438Z,45.30
2023-03-03T12:04:48.118Z,45.20
2023-03-03T12:07:22.953Z,45.20
2023-03-03T12:09:52.778Z,45.30
2023-03-03T12:12:21.594Z,45.20
2023-03-03T12:14:58.403Z,45.20
2023-03-03T12:17:28.147Z,45.20
2023-03-03T12:20:03.991Z,45.10
2023-03-03T12:22:30.822Z,45.10
2023-03-03T12:25:16.374Z,45.10
2023-03-03T12:27:43.171Z,45.20
2023-03-03T12:30:28.842Z,45.10
2023-03-03T12:33:00.403Z,45.10
2023-03-03T12:35:42.429Z,45.20
2023-03-03T12:38:09.338Z,45.10
2023-03-03T12:40:36.737Z,45.10
2023-03-03T12:43:12.776Z,45.10
2023-03-03T12:45:45.648Z,45.20
2023-03-03T12:48:22.265Z,45.10
2023-03-03T12:51:09.240Z,45.30
2023-03-03T12:53:54.880Z,45.10
2023-03-03T12:56:24.736Z,45.20
2023-03-03T12:58:51.584Z,45.20
2023-03-03T13:01:21.431Z,45.30
2023-03-03T13:03:56.124Z,45.40
2023-03-03T13:06:26.113Z,45.40
2023-03-03T13:09:02.188Z,45.30
2023-03-03T13:11:35.006Z,45.40
2023-03-03T13:14:01.738Z,45.40
2023-03-03T13:16:40.584Z,45.40
2023-03-03T13:19:10.065Z,45.40
2023-03-03T13:21:38.120Z,45.40
2023-03-03T13:24:07.952Z,45.40
2023-03-03T13:26:39.605Z,45.40
2023-03-03T13:29:19.706Z,45.30
2023-03-03T13:31:48.173Z,45.30
2023-03-03T13:34:20.461Z,45.30
2023-03-03T13:37:02.397Z,45.20
2023-03-03T13:39:49.550Z,45.20
2023-03-03T13:42:20.122Z,45.30
2023-03-03T13:44:49.176Z,45.40
2023-03-03T13:47:48.708Z,45.40
2023-03-03T13:50:18.521Z,45.40
2023-03-03T13:52:48.300Z,45.40
2023-03-03T13:55:20.505Z,45.40
2023-03-03T13:57:54.598Z,45.60
2023-03-03T14:00:27.908Z,45.60
2023-03-03T14:03:00.765Z,45.70
2023-03-03T14:05:37.570Z,45.70
2023-03-03T14:08:04.402Z,46.30
2023-03-03T14:10:31.452Z,45.90
2023-03-03T14:13:05.578Z,45.90
2023-03-03T14:15:33.666Z,46.20
2023-03-03T14:18:00.640Z,46.20
2023-03-03T14:20:31.102Z,46.30
2023-03-03T14:22:58.091Z,46.50
2023-03-03T14:25:25.111Z,46.50
2023-03-03T14:28:11.497Z,46.60
2023-03-03T14:30:39.143Z,46.60
2023-03-03T14:33:09.389Z,46.80
2023-03-03T14:35:43.187Z,46.90
2023-03-03T14:38:13.994Z,47.00
2023-03-03T14:40:43.068Z,46.90
2023-03-03T14:43:20.523Z,47.10
2023-03-03T14:45:47.351Z,47.10
2023-03-03T14:48:14.262Z,47.20
2023-03-03T14:50:41.819Z,47.20
2023-03-03T14:53:08.537Z,46.50
2023-03-03T14:55:36.419Z,46.80
2023-03-03T14:58:04.240Z,47.20
2023-03-03T15:00:33.748Z,46.70
2023-03-03T15:03:02.835Z,47.20
2023-03-03T15:05:30.044Z,47.10
2023-03-03T15:08:06.014Z,47.10
2023-03-03T15:10:41.114Z,47.10
2023-03-03T15:13:29.337Z,46.90
2023-03-03T15:15:59.227Z,47.00
2023-03-03T15:18:28.756Z,46.80
2023-03-03T15:21:12.397Z,46.80
2023-03-03T15:23:40.524Z,46.70
2023-03-03T15:26:12.497Z,46.70
2023-03-03T15:28:45.416Z,46.70
2023-03-03T15:31:15.338Z,46.50
2023-03-03T15:33:55.479Z,46.60
2023-03-03T15:36:37.635Z,46.50
2023-03-03T15:39:17.328Z,46.50
2023-03-03T15:41:45.631Z,46.50
2023-03-03T15:44:15.409Z,46.50
2023-03-03T15:46:51.924Z,46.40
2023-03-03T15:49:38.446Z,46.50
2023-03-03T15:52:25.059Z,46.40
2023-03-03T15:54:51.805Z,46.30
2023-03-03T15:57:51.210Z,47.00
2023-03-03T16:00:24.134Z,46.30
2023-03-03T16:02:59.113Z,46.30
2023-03-03T16:05:28.554Z,46.20
2023-03-03T16:07:55.261Z,46.20
2023-03-03T16:10:22.070Z,45.70
2023-03-03T16:12:51.840Z,46.00
2023-03-03T16:15:34.289Z,46.20
2023-03-03T16:18:04.298Z,46.10
2023-03-03T16:20:31.086Z,46.20
2023-03-03T16:23:00.779Z,46.20
2023-03-03T16:25:30.564Z,46.00
2023-03-03T16:28:00.362Z,46.20
2023-03-03T16:30:33.171Z,46.00
2023-03-03T16:33:04.197Z,46.00
2023-03-03T16:35:38.671Z,46.00
2023-03-03T16:38:15.761Z,46.00
2023-03-03T16:40:46.204Z,46.10
2023-03-03T16:43:31.717Z,46.00
2023-03-03T16:45:59.263Z,46.10
2023-03-03T16:48:37.992Z,46.00
2023-03-03T16:51:11.012Z,46.10
2023-03-03T16:53:46.906Z,46.00
2023-03-03T16:56:13.624Z,46.00
2023-03-03T16:58:59.277Z,46.00
2023-03-03T17:01:41.460Z,46.00
2023-03-03T17:04:08.538Z,46.10
2023-03-03T17:06:41.477Z,46.00
2023-03-03T17:09:31.563Z,46.00
2023-03-03T17:12:24.066Z,46.00
2023-03-03T17:15:25.152Z,46.00
2023-03-03T17:18:24.607Z,46.00
2023-03-03T17:21:31.155Z,46.60
2023-03-03T17:24:04.375Z,46.00
2023-03-03T17:26:54.157Z,46.00
2023-03-03T17:29:26.967Z,46.00
2023-03-03T17:32:00.919Z,45.90
2023-03-03T17:34:37.586Z,46.00
2023-03-03T17:37:17.444Z,45.90
2023-03-03T17:39:50.213Z,46.00
2023-03-03T17:42:32.443Z,45.90
2023-03-03T17:45:15.204Z,46.00
2023-03-03T17:47:57.223Z,45.90
2023-03-03T17:50:42.452Z,45.90
2023-03-03T17:53:15.540Z,45.80
2023-03-03T17:55:53.933Z,45.70
2023-03-03T17:58:45.142Z,45.70
2023-03-03T18:01:27.240Z,45.80
2023-03-03T18:04:03.087Z,46.10
2023-03-03T18:06:36.002Z,45.80
2023-03-03T18:09:14.530Z,45.80
2023-03-03T18:12:01.211Z,45.80
2023-03-03T18:14:31.123Z,45.90
2023-03-03T18:17:16.754Z,45.80
2023-03-03T18:20:02.058Z,45.70
2023-03-03T18:22:32.735Z,45.70
2023-03-03T18:25:09.357Z,45.60
2023-03-03T18:27:36.899Z,45.60
2023-03-03T18:30:03.805Z,45.50
2023-03-03T18:32:53.781Z,45.50
2023-03-03T18:35:33.002Z,45.60
2023-03-03T18:38:18.295Z,45.50
2023-03-03T18:41:04.249Z,45.50
2023-03-03T18:43:54.768Z,45.40
2023-03-03T18:46:22.797Z,45.50
2023-03-03T18:48:50.481Z,45.50
2023-03-03T18:51:35.770Z,45.50
2023-03-03T18:54:18.697Z,45.40
2023-03-03T18:56:45.520Z,45.40
2023-03-03T18:59:30.662Z,45.40
2023-03-03T19:02:12.983Z,45.40
2023-03-03T19:04:43.993Z,45.40
2023-03-03T19:07:10.863Z,45.40
2023-03-03T19:09:50.714Z,45.50
2023-03-03T19:12:17.532Z,45.50
2023-03-03T19:14:48.357Z,45.40
2023-03-03T19:17:18.280Z,45.40
2023-03-03T19:20:02.228Z,45.50
2023-03-03T19:22:30.861Z,45.40
2023-03-03T19:25:10.049Z,45.40
2023-03-03T19:28:00.029Z,45.50
2023-03-03T19:30:45.940Z,45.50
2023-03-03T19:33:12.783Z,46.00
2023-03-03T19:35:51.918Z,45.40
2023-03-03T19:38:19.351Z,45.40
2023-03-03T19:40:46.665Z,45.40
2023-03-03T19:43:26.513Z,45.40
2023-03-03T19:45:53.539Z,45.50
2023-03-03T19:48:20.450Z,45.50
2023-03-03T19:50:56.522Z,45.40
2023-03-03T19:53:41.789Z,45.40
2023-03-03T19:56:17.751Z,45.50
2023-03-03T19:59:17.149Z,45.50
2023-03-03T20:01:48.486Z,45.40
2023-03-03T20:04:27.335Z,45.50
2023-03-03T20:07:24.185Z,45.50
2023-03-03T20:09:50.987Z,45.50
2023-03-03T20:12:36.665Z,45.50
2023-03-03T20:15:15.252Z,45.40
2023-03-03T20:17:45.312Z,45.40
2023-03-03T20:20:30.734Z,45.50
2023-03-03T20:23:16.960Z,45.40
2023-03-03T20:25:45.666Z,45.40
2023-03-03T20:28:48.095Z,45.40
2023-03-03T20:31:35.832Z,45.40
2023-03-03T20:34:21.392Z,45.50
2023-03-03T20:37:00.519Z,45.40
2023-03-03T20:39:37.840Z,45.40
2023-03-03T20:42:11.336Z,45.40
2023-03-03T20:44:38.036Z,45.40
2023-03-03T20:47:17.233Z,45.40
2023-03-03T20:49:56.622Z,45.40
2023-03-03T20:52:26.493Z,45.40
2023-03-03T20:55:15.591Z,45.40
2023-03-03T20:57:50.900Z,45.40
2023-03-03T21:00:20.870Z,45.40
2023-03-03T21:02:47.560Z,45.40
2023-03-03T21:05:15.232Z,45.40
2023-03-03T21:07:58.296Z,45.40
2023-03-03T21:10:26.769Z,45.40
2023-03-03T21:12:58.717Z,45.40
2023-03-03T21:15:26.857Z,45.40
2023-03-03T21:17:55.045Z,45.40
2023-03-03T21:20:29.258Z,45.40
2023-03-03T21:22:56.540Z,45.40
2023-03-03T21:25:49.750Z,45.40
2023-03-03T21:28:28.718Z,45.40
2023-03-03T21:31:05.764Z,45.40
2023-03-03T21:34:01.811Z,45.40
2023-03-03T21:36:34.691Z,45.40
2023-03-03T21:39:02.296Z,45.40
2023-03-03T21:41:29.316Z,45.40
2023-03-03T21:43:56.005Z,45.30
2023-03-03T21:46:23.584Z,45.30
2023-03-03T21:48:53.317Z,45.30
2023-03-03T21:51:21.464Z,45.30
2023-03-03T21:53:48.337Z,45.20
2023-03-03T21:56:15.229Z,45.20
2023-03-03T21:58:42.103Z,45.10
2023-03-03T22:01:09.014Z,45.10
2023-03-03T22:03:36.052Z,45.10
2023-03-03T22:06:02.917Z,45.10
2023-03-03T22:08:29.676Z,45.10
2023-03-03T22:10:56.526Z,45.20
2023-03-03T22:13:24.620Z,45.10
2023-03-03T22:15:51.525Z,45.10
2023-03-03T22:18:18.551Z,45.10
2023-03-03T22:20:45.956Z,45.10
2023-03-03T22:23:13.049Z,45.10
2023-03-03T22:25:39.766Z,45.10
2023-03-03T22:28:06.488Z,45.10
2023-03-03T22:30:33.375Z,45.10
2023-03-03T22:33:00.105Z,45.10
2023-03-03T22:35:26.867Z,45.10
2023-03-03T22:37:53.594Z,45.10
2023-03-03T22:40:20.343Z,45.20
2023-03-03T22:42:47.075Z,45.20
2023-03-03T22:45:14.499Z,45.20
2023-03-03T22:47:41.292Z,45.20
2023-03-03T22:50:08.437Z,45.20
2023-03-03T22:52:35.237Z,45.20
2023-03-03T22:55:04.170Z,45.10
2023-03-03T22:57:31.345Z,45.10
2023-03-03T22:59:59.911Z,45.30
2023-03-03T23:02:26.626Z,45.20
2023-03-03T23:04:58.336Z,45.20
2023-03-03T23:07:26.473Z,45.20
2023-03-03T23:09:53.217Z,45.10
2023-03-03T23:12:20.152Z,45.10
2023-03-03T23:14:47.038Z,45.10
2023-03-03T23:17:13.756Z,45.10
2023-03-03T23:19:40.550Z,45.20
2023-03-03T23:22:07.282Z,45.10
2023-03-03T23:24:34.326Z,45.20
2023-03-03T23:27:01.053Z,45.20
2023-03-03T23:29:27.794Z,45.20
2023-03-03T23:31:54.648Z,45.20
2023-03-03T23:34:21.397Z,45.20
2023-03-03T23:36:48.256Z,45.20
2023-03-03T23:39:15.405Z,45.20
2023-03-03T23:41:42.461Z,45.20
2023-03-03T23:44:09.207Z,45.10
2023-03-03T23:46:36.030Z,45.10
2023-03-03T23:49:02.721Z,45.10
2023-03-03T23:51:29.464Z,45.10
2023-03-03T23:53:56.516Z,45.10
2023-03-03T23:56:23.235Z,45.10
2023-03-03T23:58:49.949Z,45.10
